Flight Track Log - Related Links

Times and Time Zones

All times are in EDT time to prevent confusion due to time zone crossing. See the WIG7417 flight status page for this flight to view local times or setup timezone preferences in your user account.


Time Position Orientation Groundspeed Altitude Reporting Facility
EDT Latitude Longitude Course Direction KTS MPH feet Rate Location/Type
Wed 07:37:00 PM 44.5210 -73.6748 235° Southwest  Level FlightAware Approximate
Wed 07:37:45 PM 44.6528 -73.6511 232° Southwest 138 159 6,100  Level Boston Center
Wed 07:38:00 PM 44.5022 -73.7124 235° Southwest  Level FlightAware Approximate
Wed 07:38:45 PM 44.6275 -73.6942 230° Southwest 143 165 6,900  Level Boston Center
Wed 07:39:00 PM 44.4834 -73.7500 235° Southwest  Level FlightAware Approximate
Wed 07:39:45 PM 44.6019 -73.7344 228° Southwest 143 165 7,700  Level Boston Center
Wed 07:40:00 PM 44.4646 -73.7876 235° Southwest  Level FlightAware Approximate
Wed 07:40:45 PM 44.5722 -73.7836 230° Southwest 143 165 8,700  Level Boston Center
Wed 07:41:00 PM 44.4449 -73.8243 227° Southwest  Level FlightAware Approximate
Wed 07:41:45 PM 44.5467 -73.8267 230° Southwest 148 170 9,400  Level Boston Center
Wed 07:42:00 PM 44.4226 -73.8578 227° Southwest  Level FlightAware Approximate
Wed 07:42:45 PM 44.5211 -73.8697 230° Southwest 148 170 10,000  Level Boston Center
Wed 07:43:00 PM 44.3978 -73.8874 232° Southwest  Level FlightAware Approximate
Wed 07:43:45 PM 44.4914 -73.9156 228° Southwest 158 182 10,000  Level Boston Center
Wed 07:44:45 PM 44.4681 -73.9528 229° Southwest 158 182 10,000  Level Boston Center
Wed 07:45:45 PM 44.4319 -74.0158 231° Southwest 163 188 10,000  Level Boston Center
Wed 07:46:45 PM 44.4042 -74.0644 231° Southwest 163 188 10,000  Level Boston Center
Wed 07:47:45 PM 44.3742 -74.1100 227° Southwest 163 188 10,000 -50 Level Boston Center
Wed 07:48:45 PM 44.3464 -74.1528 228° Southwest 163 188 9,900 -50 Descending Boston Center
Wed 07:49:45 PM 44.3144 -74.2014 227° Southwest 163 188 9,900  Level Boston Center
Wed 07:50:45 PM 44.2889 -74.2497 234° Southwest 163 188 9,900  Level Boston Center
Wed 07:51:45 PM 44.2567 -74.2981 227° Southwest 163 188 9,900  Level Boston Center
Wed 07:52:45 PM 44.2267 -74.3464 229° Southwest 163 188 9,900  Level Boston Center
Wed 07:53:45 PM 44.1969 -74.3917 228° Southwest 163 188 9,900  Level Boston Center
Wed 07:54:45 PM 44.1689 -74.4400 231° Southwest 163 188 9,900  Level Boston Center
Wed 07:55:45 PM 44.1411 -74.4883 231° Southwest 163 188 9,900  Level Boston Center
Wed 07:56:45 PM 44.1108 -74.5364 229° Southwest 163 188 9,900  Level Boston Center
Wed 07:57:45 PM 44.0808 -74.5844 229° Southwest 163 188 9,900  Level Boston Center
Wed 07:58:57 PM 44.0531 -74.6297 230° Southwest 163 188 9,900  Level Boston Center
Wed 07:59:57 PM 44.0183 -74.6892 231° Southwest 163 188 9,900 50 Level Boston Center
Wed 08:00:57 PM 43.9864 -74.7342 225° Southwest 163 188 10,000 50 Climbing Boston Center
Wed 08:01:57 PM 43.9583 -74.7819 231° Southwest 163 188 10,000  Level Boston Center
Wed 08:02:57 PM 43.9281 -74.8300 229° Southwest 163 188 10,000 -50 Level Boston Center
Wed 08:03:57 PM 43.8981 -74.8747 227° Southwest 163 188 9,900  Descending Boston Center
Wed 08:04:57 PM 43.8697 -74.9283 234° Southwest 163 188 10,000 50 Climbing Boston Center
Wed 08:05:57 PM 43.8417 -74.9733 229° Southwest 163 188 10,000  Level Boston Center
Wed 08:06:36 PM 43.8200 -75.0042 226° Southwest 161 185 10,000  Level Boston Center
Wed 08:07:31 PM 43.7919 -75.0489 229° Southwest 163 188 10,000 52 Level Boston Center
Wed 08:08:31 PM 43.7575 -75.1050 230° Southwest 170 196 10,100 50 Climbing Boston Center
Wed 08:09:32 PM 43.7292 -75.1525 230° Southwest 163 188 10,100  Level Boston Center
Wed 08:10:33 PM 43.6989 -75.1969 227° Southwest 161 185 10,100  Level Boston Center
Wed 08:11:33 PM 43.6708 -75.2417 229° Southwest 162 186 10,100  Level Boston Center
Wed 08:12:34 PM 43.6381 -75.2947 230° Southwest 163 188 10,100 -63 Level Boston Center
Wed 08:13:09 PM 43.6339 -75.3003 224° Southwest 163 188 10,000 -63 Descending Boston Center
Wed 08:14:09 PM 43.5989 -75.3589 231° Southwest 163 188 10,000  Level Boston Center
Wed 08:15:09 PM 43.5686 -75.4061 229° Southwest 163 188 10,000  Level Boston Center
Wed 08:16:09 PM 43.5383 -75.4533 229° Southwest 163 188 10,000 41 Level Boston Center
Wed 08:17:37 PM 43.4883 -75.5281 227° Southwest 163 188 10,100  Climbing Boston Center
Wed 08:18:09 PM 43.4772 -75.5475 232° Southwest 163 188 10,000 -65 Descending Boston Center
Wed 08:19:09 PM 43.4489 -75.5947 230° Southwest 163 188 10,000 -200 Level Boston Center
Wed 08:20:09 PM 43.4142 -75.6472 228° Southwest 163 188 9,600 -438 Descending Boston Center
Wed 08:20:45 PM 43.3922 -75.6833 230° Southwest 181 208 9,300 -619 Descending Boston Center
Wed 08:21:46 PM 43.3553 -75.7328 224° Southwest 193 222 8,600 -645 Descending Boston Center
Wed 08:22:46 PM 43.3206 -75.7881 229° Southwest 189 217 8,000 -843 Descending Boston Center
Wed 08:23:47 PM 43.2856 -75.8431 229° Southwest 190 219 6,900 -1,140 Descending Boston Center
Wed 08:24:47 PM 43.2483 -75.9008 229° Southwest 188 216 5,700 -1,190 Descending Boston Center
Wed 08:25:48 PM 43.2133 -75.9503 226° Southwest 183 211 4,500 -1,082 Descending Boston Center
Wed 08:26:49 PM 43.1825 -76.0056 233° Southwest 183 211 3,500 -1,041 Descending Boston Center
Wed 08:27:49 PM 43.1536 -76.0606 234° Southwest 178 205 2,400 -793 Descending Boston Center
Wed 08:28:50 PM 43.1375 -76.1081 245° Southwest 129 148 1,900 -443 Descending Boston Center
Wed 08:29:51 PM 43.1317 -76.1589 261° West 120 138 1,500 -393 Descending Boston Center
Wed 08:31:00 PM 43.1034 -76.1063 126° Southeast  Level FlightAware Approximate

Login

Don't have an account? Register now (free) for customized features, flight alerts, and more!